Time;durP1;ratioP1;P1;durP2;ratioP2;P2;SDS_P1;SDS_P2;PMS_P1;PMS_P2;Temp;Humidity;BMP_temperature;BMP_pressure;BME280_temperature;BME280_humidity;BME280_pressure;Samples;Min_cycle;Max_cycle;Signal;HPM_P1;HPM_P2
2023/10/17 00:01:54;;;;;;;8.73;4.07;;;4.10;99.90;;;;;;5111394;28;20039;-59
2023/10/17 00:07:08;;;;;;;10.70;4.90;;;4.10;99.90;;;;;;5109968;28;20043;-59
2023/10/17 00:09:38;;;;;;;8.85;4.75;;;4.10;99.90;;;;;;5111500;27;20027;-58
2023/10/17 00:17:21;;;;;;;11.98;6.13;;;4.10;99.90;;;;;;5112085;28;20660;-58
2023/10/17 00:19:49;;;;;;;;;;;4.10;99.90;;;;;;5112364;28;20059;-60
2023/10/17 00:22:23;;;;;;;8.88;4.38;;;4.10;99.90;;;;;;5098148;28;19920;-58
2023/10/17 00:24:57;;;;;;;10.13;4.63;;;4.10;99.90;;;;;;5112036;28;20050;-60
2023/10/17 00:27:23;;;;;;;12.23;5.22;;;4.00;99.90;;;;;;5111985;28;20114;-60
2023/10/17 00:29:51;;;;;;;7.80;4.57;;;4.00;99.90;;;;;;5110408;28;20044;-59
2023/10/17 00:32:18;;;;;;;10.60;5.40;;;3.90;99.90;;;;;;5096968;28;20048;-60
2023/10/17 00:34:46;;;;;;;9.07;4.93;;;3.80;99.90;;;;;;5098867;28;20040;-60
2023/10/17 00:37:19;;;;;;;10.23;4.95;;;3.80;99.90;;;;;;5110365;28;20675;-60
2023/10/17 00:39:47;;;;;;;11.18;5.00;;;3.70;99.90;;;;;;5096816;28;20056;-59
2023/10/17 00:42:27;;;;;;;10.18;4.55;;;3.70;99.90;;;;;;5104373;28;20126;-59
2023/10/17 00:44:55;;;;;;;8.95;4.45;;;3.70;99.90;;;;;;5110148;28;20552;-60
2023/10/17 00:47:22;;;;;;;10.82;4.50;;;3.70;99.90;;;;;;5110425;28;20049;-59
2023/10/17 00:49:50;;;;;;;8.82;4.03;;;3.80;99.90;;;;;;5095982;28;20428;-58
2023/10/17 00:52:20;;;;;;;9.10;4.00;;;3.70;99.90;;;;;;5111792;28;20032;-59
2023/10/17 00:54:49;;;;;;;5.78;3.58;;;3.70;99.90;;;;;;5101379;28;20050;-59
2023/10/17 00:57:17;;;;;;;7.60;3.83;;;3.70;99.90;;;;;;5111855;28;20495;-59
2023/10/17 00:59:50;;;;;;;7.50;3.20;;;3.70;99.90;;;;;;5094871;28;20118;-60
2023/10/17 01:02:22;;;;;;;5.50;3.70;;;3.60;99.90;;;;;;5102564;28;20048;-59
2023/10/17 01:04:59;;;;;;;8.38;3.15;;;3.60;99.90;;;;;;5110269;28;20377;-59
2023/10/17 01:07:29;;;;;;;9.38;3.33;;;3.50;99.90;;;;;;5111823;28;20042;-59
2023/10/17 01:10:13;;;;;;;5.80;3.47;;;3.50;99.90;;;;;;5109662;28;20097;-60
2023/10/17 01:12:53;;;;;;;6.28;3.05;;;3.50;99.90;;;;;;5115713;28;20048;-60
2023/10/17 01:15:28;;;;;;;6.18;3.10;;;3.50;99.90;;;;;;5105824;28;20051;-59
2023/10/17 01:18:03;;;;;;;5.60;3.20;;;3.50;99.90;;;;;;5106905;28;20043;-58
2023/10/17 01:20:31;;;;;;;5.65;3.53;;;3.40;99.90;;;;;;5113963;28;20040;-59
2023/10/17 01:23:03;;;;;;;7.40;3.85;;;3.40;99.90;;;;;;5110077;28;20039;-60
2023/10/17 01:25:34;;;;;;;7.15;3.83;;;3.50;99.90;;;;;;5113344;28;20035;-60
2023/10/17 01:28:03;;;;;;;7.30;4.18;;;3.50;99.90;;;;;;5102054;28;20430;-59
2023/10/17 01:30:30;;;;;;;7.20;4.20;;;3.40;99.90;;;;;;5107232;28;20044;-59
2023/10/17 01:32:58;;;;;;;7.68;3.80;;;3.50;99.90;;;;;;5115340;28;20523;-59
2023/10/17 01:35:25;;;;;;;;;;;3.50;99.90;;;;;;5105142;28;20504;-60
2023/10/17 01:37:52;;;;;;;6.60;3.08;;;3.50;99.90;;;;;;5113727;28;19973;-60
2023/10/17 01:40:28;;;;;;;8.98;3.67;;;3.50;99.90;;;;;;5105118;28;20040;-60
2023/10/17 01:43:00;;;;;;;7.55;3.67;;;3.50;99.90;;;;;;5112413;28;20155;-60
2023/10/17 01:45:30;;;;;;;6.60;3.63;;;3.50;99.90;;;;;;5111355;28;20043;-59
2023/10/17 01:47:58;;;;;;;6.90;4.10;;;3.50;99.90;;;;;;5114600;28;20046;-60
2023/10/17 01:50:25;;;;;;;8.32;4.07;;;3.50;99.90;;;;;;5114755;27;20036;-60
2023/10/17 01:52:59;;;;;;;8.70;3.90;;;3.50;99.90;;;;;;5104852;28;20043;-60
2023/10/17 01:55:29;;;;;;;6.60;3.67;;;3.50;99.90;;;;;;5095860;28;20488;-59
2023/10/17 01:57:57;;;;;;;10.40;3.85;;;3.50;99.90;;;;;;5110488;28;20169;-60
2023/10/17 02:03:05;;;;;;;6.60;4.10;;;3.40;99.90;;;;;;5096198;28;20036;-60
2023/10/17 02:05:34;;;;;;;7.20;3.97;;;3.40;99.90;;;;;;5114973;28;20503;-60
2023/10/17 02:08:01;;;;;;;9.95;4.35;;;3.30;99.90;;;;;;5112880;28;20128;-60
2023/10/17 02:10:29;;;;;;;7.05;4.22;;;3.20;99.90;;;;;;5111313;28;20139;-60
2023/10/17 02:12:57;;;;;;;10.05;5.35;;;3.10;99.90;;;;;;5102561;28;20067;-60
2023/10/17 02:15:26;;;;;;;6.60;3.45;;;3.00;99.90;;;;;;5113132;28;20039;-60
2023/10/17 02:17:57;;;;;;;8.73;3.47;;;2.80;99.90;;;;;;5114311;28;20039;-60
2023/10/17 02:20:29;;;;;;;9.15;3.17;;;2.80;99.90;;;;;;5101614;28;20044;-60
2023/10/17 02:22:58;;;;;;;6.43;3.50;;;2.70;99.90;;;;;;5104318;28;20082;-60
2023/10/17 02:25:32;;;;;;;6.30;3.40;;;2.70;99.90;;;;;;5102532;28;20046;-59
2023/10/17 02:27:59;;;;;;;5.55;3.05;;;2.70;99.90;;;;;;5104845;28;20032;-59
2023/10/17 02:30:26;;;;;;;8.95;5.00;;;2.80;99.90;;;;;;5093812;28;20127;-58
2023/10/17 02:32:56;;;;;;;8.45;4.38;;;2.80;99.90;;;;;;5094829;28;20110;-59
2023/10/17 02:35:37;;;;;;;9.90;4.20;;;2.80;99.90;;;;;;5098550;28;20069;-58
2023/10/17 02:38:05;;;;;;;9.57;4.35;;;2.70;99.90;;;;;;5112643;28;20464;-59
2023/10/17 02:40:38;;;;;;;7.80;4.22;;;2.70;99.90;;;;;;5113164;28;20369;-59
2023/10/17 02:43:05;;;;;;;9.80;4.05;;;2.70;99.90;;;;;;5108978;28;20050;-60
2023/10/17 02:45:32;;;;;;;6.03;3.50;;;2.70;99.90;;;;;;5112160;28;20049;-59
2023/10/17 02:50:58;;;;;;;6.53;3.50;;;2.50;99.90;;;;;;5100628;28;20055;-58
2023/10/17 02:53:29;;;;;;;7.10;3.20;;;2.50;99.90;;;;;;5091857;28;20043;-59
2023/10/17 02:55:58;;;;;;;7.22;3.35;;;2.50;99.90;;;;;;5108281;28;20456;-60
2023/10/17 02:58:25;;;;;;;6.75;3.67;;;2.50;99.90;;;;;;5100938;28;20054;-58
2023/10/17 03:00:51;;;;;;;5.80;3.70;;;2.50;99.90;;;;;;5099294;28;20411;-59
2023/10/17 03:03:19;;;;;;;6.85;3.85;;;2.40;99.90;;;;;;5111001;28;20043;-59
2023/10/17 03:05:53;;;;;;;6.85;3.58;;;2.50;99.90;;;;;;5110557;28;20040;-58
2023/10/17 03:08:20;;;;;;;6.55;3.50;;;2.40;99.90;;;;;;5111384;28;20480;-59
2023/10/17 03:10:55;;;;;;;6.65;3.70;;;2.50;99.90;;;;;;5113039;28;20194;-60
2023/10/17 03:13:23;;;;;;;5.43;3.15;;;2.50;99.90;;;;;;5111492;28;20050;-59
2023/10/17 03:15:57;;;;;;;6.07;3.30;;;2.50;99.90;;;;;;5107314;28;20051;-60
2023/10/17 03:18:24;;;;;;;6.95;3.83;;;2.50;99.90;;;;;;5092799;28;20036;-59
2023/10/17 03:20:52;;;;;;;7.45;4.40;;;2.60;99.90;;;;;;5097316;28;20036;-60
2023/10/17 03:23:28;;;;;;;6.45;3.60;;;2.60;99.90;;;;;;5100583;28;20713;-60
2023/10/17 03:26:01;;;;;;;6.90;4.38;;;2.60;99.90;;;;;;5100408;28;20077;-60
2023/10/17 03:28:33;;;;;;;7.05;4.60;;;2.70;99.90;;;;;;5100088;28;20047;-60
2023/10/17 03:31:10;;;;;;;7.55;5.13;;;2.70;99.90;;;;;;5099954;28;20082;-60
2023/10/17 03:33:42;;;;;;;11.13;5.40;;;2.70;99.90;;;;;;5118240;27;20455;-59
2023/10/17 03:36:40;;;;;;;10.38;4.40;;;2.70;99.90;;;;;;5102434;28;20093;-60
2023/10/17 03:39:14;;;;;;;8.48;4.45;;;2.70;99.90;;;;;;5103841;28;20043;-60
2023/10/17 03:41:41;;;;;;;7.53;4.13;;;2.70;99.90;;;;;;5102079;28;20036;-59
2023/10/17 03:44:08;;;;;;;12.77;4.65;;;2.70;99.90;;;;;;5102062;28;20039;-59
2023/10/17 03:46:35;;;;;;;8.93;5.78;;;2.80;99.90;;;;;;5101230;28;20044;-60
2023/10/17 03:49:04;;;;;;;10.40;5.50;;;2.80;99.90;;;;;;5102748;28;20036;-59
2023/10/17 03:51:31;;;;;;;10.02;5.55;;;2.80;99.90;;;;;;5100486;28;20122;-58
2023/10/17 03:54:07;;;;;;;10.73;5.80;;;2.80;99.90;;;;;;5104137;28;20092;-59
2023/10/17 03:56:45;;;;;;;13.38;6.40;;;2.90;99.90;;;;;;5102743;28;20046;-60
2023/10/17 04:01:41;;;;;;;;;;;2.80;99.90;;;;;;5099594;28;20041;-58
2023/10/17 04:04:08;;;;;;;11.48;4.60;;;2.80;99.90;;;;;;5102086;28;20384;-58
2023/10/17 04:06:51;;;;;;;10.80;6.38;;;2.80;99.90;;;;;;5100756;28;20044;-58
2023/10/17 04:09:27;;;;;;;16.10;7.90;;;2.80;99.90;;;;;;5099495;28;20064;-60
2023/10/17 04:12:06;;;;;;;12.07;6.88;;;2.80;99.90;;;;;;5104621;28;20376;-60
2023/10/17 04:14:33;;;;;;;17.15;7.30;;;2.80;99.90;;;;;;5100370;28;20036;-60
2023/10/17 04:17:03;;;;;;;;;;;2.80;99.90;;;;;;5102062;28;20048;-60
2023/10/17 04:19:31;;;;;;;16.13;7.72;;;2.70;99.90;;;;;;5100285;28;19970;-59
2023/10/17 04:24:48;;;;;;;20.95;7.65;;;2.70;99.90;;;;;;5100896;28;20039;-60
2023/10/17 04:27:19;;;;;;;17.20;7.53;;;2.80;99.90;;;;;;5099473;28;20035;-60
2023/10/17 04:29:56;;;;;;;16.83;7.55;;;2.80;99.90;;;;;;5098888;28;20183;-59
2023/10/17 04:32:33;;;;;;;13.50;7.78;;;2.80;99.90;;;;;;5104843;28;20536;-60
2023/10/17 04:35:02;;;;;;;12.77;6.80;;;2.90;99.90;;;;;;5099855;28;20036;-59
2023/10/17 04:37:32;;;;;;;15.52;7.47;;;2.90;99.90;;;;;;5099136;28;20082;-59
2023/10/17 04:45:28;;;;;;;14.30;7.28;;;3.00;99.90;;;;;;5103049;28;20432;-58
2023/10/17 04:48:11;;;;;;;15.30;7.35;;;3.00;99.90;;;;;;5109283;28;20383;-60
2023/10/17 04:50:45;;;;;;;15.15;7.57;;;3.10;99.90;;;;;;5102637;28;20040;-60
2023/10/17 04:53:27;;;;;;;14.60;7.60;;;3.10;99.90;;;;;;5110587;28;20036;-59
2023/10/17 04:56:09;;;;;;;17.55;7.47;;;3.10;99.90;;;;;;5108915;28;20551;-60
2023/10/17 04:58:49;;;;;;;13.48;7.53;;;3.20;99.90;;;;;;5094958;28;20326;-59
2023/10/17 05:01:46;;;;;;;12.07;7.43;;;3.20;99.90;;;;;;5102412;28;20381;-59
2023/10/17 06:18:38;;;;;;;9.45;5.47;;;3.00;99.90;;;;;;5112734;28;20039;-60
2023/10/17 06:21:07;;;;;;;12.43;6.43;;;3.10;99.90;;;;;;5113019;28;20518;-59
2023/10/17 06:34:20;;;;;;;9.68;5.40;;;3.50;99.90;;;;;;5110986;28;20049;-58
2023/10/17 06:36:59;;;;;;;18.33;8.00;;;3.50;99.90;;;;;;5113566;28;20036;-58
2023/10/17 06:39:36;;;;;;;20.33;6.88;;;3.60;99.90;;;;;;5113210;28;20488;-60
2023/10/17 06:42:28;;;;;;;13.88;7.63;;;3.80;99.90;;;;;;5107473;28;20044;-59
2023/10/17 06:45:01;;;;;;;13.35;7.20;;;3.80;99.90;;;;;;5113696;28;20035;-59
2023/10/17 06:47:31;;;;;;;13.27;7.68;;;3.90;99.90;;;;;;5113091;28;20067;-59
2023/10/17 06:52:40;;;;;;;14.38;7.03;;;4.10;99.90;;;;;;5113100;28;20050;-59
2023/10/17 06:55:08;;;;;;;15.45;7.32;;;4.20;99.90;;;;;;5110122;28;20040;-57
2023/10/17 06:57:36;;;;;;;;;;;4.20;99.90;;;;;;5113488;28;20131;-59
2023/10/17 07:00:16;;;;;;;17.98;7.93;;;4.30;99.90;;;;;;5112782;28;19927;-60
2023/10/17 07:02:48;;;;;;;10.50;7.28;;;4.30;99.90;;;;;;5112971;28;20042;-60
2023/10/17 07:05:21;;;;;;;12.00;6.78;;;4.40;99.90;;;;;;5106604;28;20071;-59
2023/10/17 07:07:54;;;;;;;16.95;7.95;;;4.40;99.90;;;;;;5104908;28;20067;-59
2023/10/17 07:10:37;;;;;;;14.65;8.10;;;4.50;99.90;;;;;;5112860;28;20039;-60
2023/10/17 07:13:41;;;;;;;19.80;9.05;;;4.50;99.90;;;;;;5106685;28;20123;-60
2023/10/17 07:16:12;;;;;;;17.40;7.70;;;4.60;99.90;;;;;;5108234;28;20046;-59
2023/10/17 07:21:17;;;;;;;17.65;7.35;;;4.90;99.90;;;;;;5095183;28;20043;-59
2023/10/17 07:23:48;;;;;;;14.95;7.03;;;5.00;99.90;;;;;;5099716;28;20048;-60
2023/10/17 07:26:35;;;;;;;15.43;6.45;;;5.20;99.90;;;;;;5112608;28;20039;-58
2023/10/17 07:29:05;;;;;;;12.93;6.47;;;5.20;99.90;;;;;;5104198;28;20040;-57
2023/10/17 07:31:32;;;;;;;12.32;6.18;;;5.20;99.90;;;;;;5094354;28;20040;-59
2023/10/17 07:36:39;;;;;;;9.18;6.38;;;5.30;99.90;;;;;;5112776;28;20134;-59
2023/10/17 07:39:08;;;;;;;10.30;6.10;;;5.30;99.90;;;;;;5111690;28;20043;-58
2023/10/17 07:41:38;;;;;;;14.05;6.75;;;5.30;99.90;;;;;;5110007;28;20036;-59
2023/10/17 07:44:21;;;;;;;14.13;7.15;;;5.30;99.90;;;;;;5112425;28;20050;-59
2023/10/17 07:46:50;;;;;;;11.40;6.93;;;5.40;99.90;;;;;;5112274;27;20035;-59
2023/10/17 07:49:26;;;;;;;10.50;6.57;;;5.40;99.90;;;;;;5112254;28;20080;-58
2023/10/17 07:51:54;;;;;;;13.98;6.18;;;5.50;99.90;;;;;;5104052;28;20048;-59
2023/10/17 07:54:28;;;;;;;9.30;5.80;;;5.70;99.90;;;;;;5104199;28;20043;-58
2023/10/17 07:56:58;;;;;;;11.70;5.95;;;5.70;99.90;;;;;;5112193;28;20047;-60
2023/10/17 07:59:31;;;;;;;13.15;6.68;;;5.80;99.90;;;;;;5104006;28;20042;-60
2023/10/17 08:02:13;;;;;;;11.70;6.10;;;5.80;99.90;;;;;;5108592;28;20123;-59
2023/10/17 08:04:43;;;;;;;11.32;5.22;;;5.90;99.90;;;;;;5110754;28;20057;-58
2023/10/17 08:07:13;;;;;;;11.40;5.15;;;6.00;99.90;;;;;;5111377;28;20046;-60
2023/10/17 08:09:58;;;;;;;10.15;4.80;;;6.20;99.90;;;;;;5110202;28;20043;-59
2023/10/17 08:12:29;;;;;;;13.07;5.75;;;6.30;99.90;;;;;;5108002;28;20044;-59
2023/10/17 08:14:59;;;;;;;10.93;5.60;;;6.60;99.90;;;;;;5111949;28;20039;-60
2023/10/17 08:17:34;;;;;;;8.68;5.55;;;6.70;99.90;;;;;;5111159;28;20050;-59
2023/10/17 08:23:26;;;;;;;8.95;4.95;;;7.00;99.90;;;;;;5083584;28;20047;-59
2023/10/17 08:25:53;;;;;;;13.93;4.82;;;7.10;99.90;;;;;;5108239;28;20143;-61
2023/10/17 08:29:08;;;;;;;9.50;4.57;;;7.30;99.90;;;;;;5111745;28;20027;-61
2023/10/17 08:31:24;;;;;;;8.50;4.75;;;7.20;99.90;;;;;;5095461;28;20055;-60
2023/10/17 08:42:36;;;;;;;8.98;4.38;;;7.30;99.90;;;;;;5096346;28;20086;-60
2023/10/17 08:44:54;;;;;;;8.27;4.70;;;7.30;99.90;;;;;;5101394;28;20132;-60
2023/10/17 08:47:25;;;;;;;11.82;5.25;;;7.30;99.90;;;;;;5110688;28;20035;-60
2023/10/17 08:49:55;;;;;;;8.98;4.45;;;7.50;99.90;;;;;;5101392;28;20052;-60
2023/10/17 08:52:31;;;;;;;14.57;5.70;;;7.60;99.90;;;;;;5106392;28;20051;-59
2023/10/17 08:54:58;;;;;;;8.23;4.22;;;7.70;99.90;;;;;;5111049;28;20042;-60
2023/10/17 08:57:25;;;;;;;6.18;4.03;;;7.80;99.90;;;;;;5111414;28;20407;-60
2023/10/17 09:00:14;;;;;;;;;;;7.90;99.90;;;;;;5107817;28;20031;-60
2023/10/17 09:02:48;;;;;;;9.35;4.25;;;8.00;99.90;;;;;;5111080;28;20284;-61
2023/10/17 09:05:19;;;;;;;6.20;4.22;;;8.00;99.90;;;;;;5109466;28;20040;-60
2023/10/17 09:07:47;;;;;;;7.50;4.30;;;8.10;99.90;;;;;;5111231;28;20388;-60
2023/10/17 09:10:17;;;;;;;8.48;4.25;;;8.10;99.90;;;;;;5109896;28;20039;-60
2023/10/17 09:13:12;;;;;;;10.10;4.50;;;8.20;99.90;;;;;;5102997;28;20046;-59
2023/10/17 09:15:30;;;;;;;7.03;4.25;;;8.20;99.90;;;;;;5111135;28;20058;-59
2023/10/17 09:18:07;;;;;;;5.70;4.07;;;8.20;99.90;;;;;;5109549;28;20444;-60
2023/10/17 09:20:39;;;;;;;6.68;4.07;;;8.40;99.90;;;;;;5110161;28;20100;-60
2023/10/17 09:23:27;;;;;;;6.82;3.70;;;8.50;99.90;;;;;;5111002;28;20040;-59
2023/10/17 09:25:59;;;;;;;10.90;3.97;;;8.40;99.90;;;;;;5103916;28;20456;-60
2023/10/17 09:28:28;;;;;;;8.75;3.60;;;8.50;99.90;;;;;;5110992;28;20043;-61
2023/10/17 09:31:03;;;;;;;9.85;4.45;;;8.70;99.90;;;;;;5113152;28;20052;-59
2023/10/17 09:33:31;;;;;;;7.90;4.00;;;8.80;99.90;;;;;;5107979;28;20066;-61
2023/10/17 09:36:03;;;;;;;7.35;4.32;;;8.90;99.90;;;;;;5114462;28;20040;-59
2023/10/17 09:38:32;;;;;;;9.45;4.32;;;9.00;99.90;;;;;;5114559;28;20119;-61
2023/10/17 09:41:02;;;;;;;6.95;4.43;;;9.10;99.90;;;;;;5114423;28;20055;-60
2023/10/17 09:43:45;;;;;;;8.35;4.30;;;9.20;99.90;;;;;;5112154;28;20044;-60
2023/10/17 09:46:13;;;;;;;12.05;4.22;;;9.40;99.90;;;;;;5107942;28;20040;-60
2023/10/17 09:48:42;;;;;;;7.50;3.50;;;9.50;99.90;;;;;;5114607;28;20059;-59
2023/10/17 09:51:27;;;;;;;15.98;3.85;;;9.60;99.90;;;;;;5113781;28;20047;-60
2023/10/17 09:53:58;;;;;;;9.15;3.90;;;9.60;99.90;;;;;;5105161;28;20101;-60
2023/10/17 09:56:41;;;;;;;6.65;3.95;;;9.70;99.90;;;;;;5108799;28;20131;-61
2023/10/17 09:59:16;;;;;;;6.60;3.88;;;9.70;99.90;;;;;;5112273;28;20043;-60
2023/10/17 10:01:49;;;;;;;7.10;3.80;;;9.80;99.90;;;;;;5111163;28;20044;-60
2023/10/17 10:04:19;;;;;;;6.13;3.40;;;9.80;99.90;;;;;;5113852;28;20100;-60
2023/10/17 10:06:47;;;;;;;6.35;3.13;;;10.00;99.90;;;;;;5112991;28;20502;-60
2023/10/17 10:09:14;;;;;;;8.50;3.92;;;10.10;99.90;;;;;;5107406;28;20585;-60
2023/10/17 10:11:48;;;;;;;;;;;10.10;99.90;;;;;;5114357;28;20067;-59
2023/10/17 10:14:16;;;;;;;6.82;3.58;;;10.00;99.90;;;;;;5113843;28;19992;-59
2023/10/17 10:16:53;;;;;;;7.95;4.00;;;10.10;99.90;;;;;;5113958;28;20031;-59
2023/10/17 10:19:27;;;;;;;5.60;3.72;;;10.00;99.90;;;;;;5107364;28;20036;-60
2023/10/17 10:21:58;;;;;;;12.45;4.15;;;10.10;99.90;;;;;;5106355;28;20100;-60
2023/10/17 10:24:33;;;;;;;12.85;4.50;;;10.20;99.90;;;;;;5113876;28;20042;-59
2023/10/17 10:27:15;;;;;;;5.78;3.42;;;10.20;99.90;;;;;;5113533;28;20031;-60
2023/10/17 10:29:43;;;;;;;6.25;3.50;;;10.20;99.90;;;;;;5110666;28;20450;-60
2023/10/17 10:32:32;;;;;;;8.25;3.35;;;10.30;99.90;;;;;;5108927;28;20060;-60
2023/10/17 10:35:01;;;;;;;7.38;3.25;;;10.30;99.90;;;;;;5112713;28;20079;-60
2023/10/17 10:37:28;;;;;;;4.53;3.30;;;10.50;99.90;;;;;;5109021;28;20043;-60
2023/10/17 10:40:12;;;;;;;7.55;3.42;;;10.50;99.90;;;;;;5111912;28;20044;-60
2023/10/17 10:42:47;;;;;;;9.90;3.20;;;10.50;99.90;;;;;;5112276;28;20035;-59
2023/10/17 10:45:40;;;;;;;8.57;4.20;;;10.70;99.90;;;;;;5104919;28;20468;-60
2023/10/17 10:48:15;;;;;;;11.70;4.00;;;10.90;99.90;;;;;;5113525;28;20408;-60
2023/10/17 10:50:48;;;;;;;5.45;3.20;;;11.00;99.90;;;;;;5107039;28;20130;-59
2023/10/17 10:53:28;;;;;;;6.75;2.92;;;11.20;99.90;;;;;;5113351;28;20506;-61
2023/10/17 10:56:03;;;;;;;5.53;2.90;;;11.20;99.90;;;;;;5111627;28;20110;-61
2023/10/17 10:58:33;;;;;;;5.43;2.97;;;11.40;99.90;;;;;;5112656;28;20035;-61
2023/10/17 11:01:02;;;;;;;4.65;2.65;;;11.50;99.90;;;;;;5112000;28;20483;-61
2023/10/17 11:03:32;;;;;;;5.13;2.90;;;11.50;99.90;;;;;;5112627;28;20047;-60
2023/10/17 11:06:03;;;;;;;5.28;3.22;;;11.30;99.90;;;;;;5112655;28;20152;-60
2023/10/17 11:08:35;;;;;;;9.25;3.83;;;11.30;99.90;;;;;;5106191;28;20465;-60
2023/10/17 11:11:05;;;;;;;5.00;3.00;;;11.30;99.90;;;;;;5103922;28;20050;-59
2023/10/17 11:13:37;;;;;;;7.10;3.50;;;11.30;99.90;;;;;;5111416;28;20112;-59
2023/10/17 11:16:05;;;;;;;5.47;3.40;;;11.40;99.90;;;;;;5112356;28;20130;-61
2023/10/17 11:18:40;;;;;;;8.98;3.30;;;11.40;99.90;;;;;;5110997;28;20134;-60
2023/10/17 11:21:10;;;;;;;5.57;3.05;;;11.40;99.90;;;;;;5112045;28;20039;-60
2023/10/17 11:23:50;;;;;;;6.82;3.63;;;11.40;99.90;;;;;;5112630;28;20040;-60
2023/10/17 11:26:21;;;;;;;6.65;4.30;;;11.50;99.90;;;;;;5103827;28;20535;-61
2023/10/17 11:28:56;;;;;;;6.65;3.75;;;11.60;99.90;;;;;;5101326;28;20929;-61
2023/10/17 11:31:27;;;;;;;4.78;2.88;;;11.80;99.90;;;;;;5112092;28;20036;-59
2023/10/17 11:34:07;;;;;;;8.05;3.90;;;11.80;99.90;;;;;;5111829;28;20043;-61
2023/10/17 11:36:48;;;;;;;4.72;3.25;;;11.70;99.90;;;;;;5103840;28;20118;-60
2023/10/17 11:39:24;;;;;;;5.07;3.45;;;11.90;99.90;;;;;;5091738;28;20044;-60
2023/10/17 11:41:55;;;;;;;5.95;3.70;;;12.00;99.90;;;;;;5108355;28;20040;-60
2023/10/17 11:44:24;;;;;;;5.72;3.40;;;12.10;99.90;;;;;;5110695;28;20039;-61
2023/10/17 11:46:55;;;;;;;5.03;3.50;;;12.00;99.90;;;;;;5112022;28;20126;-60
2023/10/17 11:49:33;;;;;;;5.75;3.45;;;12.00;99.90;;;;;;5111925;28;20439;-60
2023/10/17 11:52:10;;;;;;;5.18;3.35;;;12.10;99.90;;;;;;5111412;28;20093;-61
2023/10/17 11:55:00;;;;;;;11.40;3.55;;;12.10;99.90;;;;;;5107083;28;20043;-60
2023/10/17 11:57:28;;;;;;;8.30;3.47;;;12.20;99.90;;;;;;5111948;28;20059;-61
2023/10/17 11:59:59;;;;;;;8.43;3.67;;;12.20;99.90;;;;;;5104113;28;20472;-60
2023/10/17 12:02:26;;;;;;;7.28;3.92;;;12.10;99.90;;;;;;5111858;28;20028;-60
2023/10/17 12:04:53;;;;;;;8.75;5.30;;;12.10;99.90;;;;;;5109685;28;20093;-60
2023/10/17 12:07:21;;;;;;;12.35;6.63;;;12.10;99.90;;;;;;5111966;28;20073;-61
2023/10/17 12:09:47;;;;;;;10.18;6.72;;;12.00;99.90;;;;;;5109465;28;20282;-58
2023/10/17 12:12:19;;;;;;;13.55;7.65;;;11.90;99.90;;;;;;5111645;28;20510;-61
2023/10/17 12:14:47;;;;;;;11.27;7.43;;;11.70;99.90;;;;;;5112135;28;20040;-60
2023/10/17 12:17:18;;;;;;;11.30;7.32;;;11.50;99.90;;;;;;5103318;28;20036;-61
2023/10/17 12:19:46;;;;;;;16.75;8.32;;;11.30;99.90;;;;;;5104993;28;20043;-61
2023/10/17 12:22:13;;;;;;;13.57;8.15;;;11.20;99.90;;;;;;5110967;28;20032;-60
2023/10/17 12:24:40;;;;;;;16.98;8.43;;;11.20;99.90;;;;;;5111512;28;20040;-60
2023/10/17 12:27:12;;;;;;;15.50;8.70;;;11.10;99.90;;;;;;5111499;28;20044;-60
2023/10/17 12:29:39;;;;;;;13.38;8.70;;;11.00;99.90;;;;;;5106950;28;20048;-60
2023/10/17 12:32:10;;;;;;;;;;;10.90;99.90;;;;;;5111646;28;20043;-60
2023/10/17 12:34:40;;;;;;;15.82;8.10;;;10.90;99.90;;;;;;5111799;28;19920;-60
2023/10/17 12:37:11;;;;;;;18.35;9.20;;;10.90;99.90;;;;;;5108693;28;20042;-60
2023/10/17 12:39:42;;;;;;;15.88;9.07;;;10.90;99.90;;;;;;5106611;28;20428;-61
2023/10/17 12:42:11;;;;;;;15.02;8.27;;;11.00;99.90;;;;;;5110224;28;20121;-59
2023/10/17 12:44:38;;;;;;;13.73;8.20;;;11.00;99.90;;;;;;5111353;28;20039;-61
2023/10/17 12:47:05;;;;;;;14.77;8.85;;;11.10;99.90;;;;;;5108459;28;20048;-61
2023/10/17 12:49:32;;;;;;;17.35;9.40;;;11.10;99.90;;;;;;5111727;28;20448;-61
2023/10/17 12:52:00;;;;;;;14.98;9.48;;;11.10;99.90;;;;;;5111084;28;20047;-59
2023/10/17 12:54:29;;;;;;;15.05;9.52;;;11.10;99.90;;;;;;5105401;28;20112;-60
2023/10/17 12:56:57;;;;;;;;;;;11.10;99.90;;;;;;5111587;28;20043;-60
2023/10/17 12:59:23;;;;;;;14.50;8.75;;;11.10;99.90;;;;;;5104346;28;19920;-60
2023/10/17 13:01:51;;;;;;;15.68;9.35;;;11.10;99.90;;;;;;5110792;28;20114;-59
2023/10/17 13:04:20;;;;;;;18.17;9.80;;;11.00;99.90;;;;;;5111372;28;20499;-60
2023/10/17 13:06:48;;;;;;;17.60;9.75;;;11.00;99.90;;;;;;5109823;28;20054;-60
2023/10/17 13:09:15;;;;;;;20.38;10.98;;;10.90;99.90;;;;;;5114342;28;20047;-61
2023/10/17 13:11:42;;;;;;;14.43;8.55;;;10.80;99.90;;;;;;5114877;28;20086;-60
2023/10/17 13:14:08;;;;;;;16.65;10.27;;;10.80;99.90;;;;;;5115237;28;20131;-60
2023/10/17 13:16:35;;;;;;;17.55;9.80;;;10.80;99.90;;;;;;5107949;28;20070;-60
2023/10/17 13:19:16;;;;;;;15.65;9.80;;;10.80;99.90;;;;;;5114992;28;20040;-59
2023/10/17 13:21:44;;;;;;;19.27;10.93;;;10.80;99.90;;;;;;5114599;28;20043;-60
2023/10/17 13:24:13;;;;;;;16.40;10.25;;;10.80;99.90;;;;;;5113598;28;20036;-61
2023/10/17 13:26:40;;;;;;;18.65;10.13;;;10.80;99.90;;;;;;5109132;28;20428;-60
2023/10/17 13:29:07;;;;;;;18.90;10.23;;;10.80;99.90;;;;;;5114588;28;20031;-61
2023/10/17 13:31:34;;;;;;;18.55;10.40;;;10.90;99.90;;;;;;5114951;28;20031;-60
2023/10/17 13:34:00;;;;;;;16.83;10.43;;;10.90;99.90;;;;;;5101270;28;20054;-60
2023/10/17 13:36:27;;;;;;;17.35;9.80;;;10.80;99.90;;;;;;5115216;28;20438;-61
2023/10/17 13:38:54;;;;;;;16.20;10.25;;;10.80;99.90;;;;;;5114394;27;20511;-59
2023/10/17 13:41:22;;;;;;;20.67;10.43;;;10.70;99.90;;;;;;5114846;28;20408;-61
2023/10/17 13:43:49;;;;;;;18.00;10.50;;;10.70;99.90;;;;;;5104474;28;20038;-60
2023/10/17 13:46:17;;;;;;;17.52;10.57;;;10.50;99.90;;;;;;5114590;28;20044;-60
2023/10/17 13:48:50;;;;;;;17.30;11.10;;;10.50;99.90;;;;;;5114245;28;20040;-60
2023/10/17 13:51:18;;;;;;;19.65;11.32;;;10.50;99.90;;;;;;5106093;28;20101;-59
2023/10/17 13:53:46;;;;;;;17.27;11.40;;;10.50;99.90;;;;;;5114317;28;20082;-58
2023/10/17 13:56:15;;;;;;;19.77;11.52;;;10.50;99.90;;;;;;5114108;27;20047;-60
2023/10/17 13:58:42;;;;;;;19.75;11.32;;;10.40;99.90;;;;;;5112234;28;20052;-59
2023/10/17 14:01:31;;;;;;;17.13;10.15;;;10.40;99.90;;;;;;5102739;28;20503;-60
2023/10/17 14:04:01;;;;;;;18.35;10.80;;;10.20;99.90;;;;;;5114029;28;20264;-60
2023/10/17 14:06:28;;;;;;;18.98;11.23;;;10.20;99.90;;;;;;5114345;28;20039;-61
2023/10/17 14:08:55;;;;;;;20.40;11.27;;;10.20;99.90;;;;;;5104984;28;20032;-61
2023/10/17 14:11:23;;;;;;;22.20;11.88;;;10.20;99.90;;;;;;5113939;28;20058;-60
2023/10/17 14:13:50;;;;;;;20.05;10.85;;;10.10;99.90;;;;;;5113213;28;20359;-60
2023/10/17 14:16:17;;;;;;;18.15;10.38;;;10.00;99.90;;;;;;5107826;28;20073;-59
2023/10/17 14:18:46;;;;;;;21.83;10.82;;;10.00;99.90;;;;;;5114187;28;20104;-60
2023/10/17 14:24:00;;;;;;;19.85;10.70;;;9.90;99.90;;;;;;5113443;28;20092;-59
2023/10/17 14:26:30;;;;;;;18.30;11.07;;;9.80;99.90;;;;;;5113284;28;20040;-60
2023/10/17 14:29:00;;;;;;;18.95;12.23;;;9.80;99.90;;;;;;5112566;28;20388;-60
2023/10/17 14:31:29;;;;;;;19.63;11.32;;;9.70;99.90;;;;;;5113693;28;20032;-60
2023/10/17 14:34:00;;;;;;;16.23;10.30;;;9.70;99.90;;;;;;5113194;28;20488;-60
2023/10/17 14:36:28;;;;;;;19.95;10.90;;;9.70;99.90;;;;;;5108744;28;20326;-60
2023/10/17 14:38:55;;;;;;;21.45;11.75;;;9.60;99.90;;;;;;5108823;28;20500;-60
2023/10/17 14:41:24;;;;;;;18.55;11.30;;;9.60;99.90;;;;;;5113330;28;20031;-60
2023/10/17 14:43:51;;;;;;;23.63;12.00;;;9.60;99.90;;;;;;5113556;28;20047;-59
2023/10/17 14:46:20;;;;;;;18.77;11.27;;;9.60;99.90;;;;;;5101292;28;20032;-61
2023/10/17 14:48:48;;;;;;;18.05;11.25;;;9.60;99.90;;;;;;5107343;28;20502;-61
2023/10/17 14:51:15;;;;;;;22.00;11.38;;;9.60;99.90;;;;;;5109632;28;20044;-59
2023/10/17 14:53:43;;;;;;;20.40;11.82;;;9.50;99.90;;;;;;5101184;28;20042;-60
2023/10/17 14:56:21;;;;;;;18.00;10.98;;;9.50;99.90;;;;;;5110494;28;20116;-60
2023/10/17 14:58:51;;;;;;;20.63;12.20;;;9.50;99.90;;;;;;5111736;28;20507;-61
2023/10/17 15:01:18;;;;;;;21.20;11.90;;;9.50;99.90;;;;;;5108342;28;20039;-60
2023/10/17 15:03:46;;;;;;;19.52;12.00;;;9.50;99.90;;;;;;5107070;28;20074;-60
2023/10/17 15:06:13;;;;;;;20.95;11.75;;;9.50;99.90;;;;;;5109812;28;20157;-60
2023/10/17 15:08:39;;;;;;;19.27;11.18;;;9.50;99.90;;;;;;5112675;28;20381;-60
2023/10/17 15:11:06;;;;;;;19.55;11.15;;;9.60;99.90;;;;;;5110799;28;20050;-60
2023/10/17 15:13:33;;;;;;;19.02;11.25;;;9.60;99.90;;;;;;5111979;28;20036;-60
2023/10/17 15:16:02;;;;;;;21.48;11.63;;;9.60;99.90;;;;;;5109835;28;20415;-61
2023/10/17 15:18:30;;;;;;;24.55;12.98;;;9.60;99.90;;;;;;5112027;28;20047;-60
2023/10/17 15:21:11;;;;;;;22.77;11.55;;;9.50;99.90;;;;;;5112027;28;20036;-60
2023/10/17 15:23:48;;;;;;;19.27;11.32;;;9.50;99.90;;;;;;5110275;28;20570;-60
2023/10/17 15:26:15;;;;;;;19.48;12.02;;;9.40;99.90;;;;;;5110511;28;20392;-60